sensor_id;sensor_type;location;lat;lon;timestamp;temperature;humidity
9800;DHT22;4939;52.00085300;4.17406100;2022-07-03T03:17:07;17.70;99.90
9800;DHT22;4939;52.00085300;4.17406100;2022-07-03T03:19:40;17.50;99.90
9800;DHT22;4939;52.00085300;4.17406100;2022-07-03T03:22:23;17.50;99.90
9800;DHT22;4939;52.00085300;4.17406100;2022-07-03T03:37:07;17.50;99.90
9800;DHT22;4939;52.00085300;4.17406100;2022-07-03T03:39:32;17.80;99.90
9800;DHT22;4939;52.00085300;4.17406100;2022-07-03T03:41:59;17.80;99.90
9800;DHT22;4939;52.00085300;4.17406100;2022-07-03T03:44:26;17.50;99.90
9800;DHT22;4939;52.00085300;4.17406100;2022-07-03T04:01:33;17.10;99.90
9800;DHT22;4939;52.00085300;4.17406100;2022-07-03T04:03:59;17.30;99.90
9800;DHT22;4939;52.00085300;4.17406100;2022-07-03T04:06:25;17.10;99.90
9800;DHT22;4939;52.00085300;4.17406100;2022-07-03T04:08:51;17.00;99.90
9800;DHT22;4939;52.00085300;4.17406100;2022-07-03T04:11:17;16.90;99.90
9800;DHT22;4939;52.00085300;4.17406100;2022-07-03T04:13:43;16.60;99.90
9800;DHT22;4939;52.00085300;4.17406100;2022-07-03T04:16:09;16.90;99.90
9800;DHT22;4939;52.00085300;4.17406100;2022-07-03T04:18:34;17.00;99.90
9800;DHT22;4939;52.00085300;4.17406100;2022-07-03T04:21:00;16.90;99.90
9800;DHT22;4939;52.00085300;4.17406100;2022-07-03T04:23:26;16.90;99.90
9800;DHT22;4939;52.00085300;4.17406100;2022-07-03T04:25:52;16.90;99.90
9800;DHT22;4939;52.00085300;4.17406100;2022-07-03T04:28:17;17.00;99.90
9800;DHT22;4939;52.00085300;4.17406100;2022-07-03T04:30:43;16.90;99.90
9800;DHT22;4939;52.00085300;4.17406100;2022-07-03T04:33:09;16.90;99.90
9800;DHT22;4939;52.00085300;4.17406100;2022-07-03T04:35:34;16.80;99.90
9800;DHT22;4939;52.00085300;4.17406100;2022-07-03T04:38:00;16.80;99.90
9800;DHT22;4939;52.00085300;4.17406100;2022-07-03T04:40:26;16.80;99.90
9800;DHT22;4939;52.00085300;4.17406100;2022-07-03T04:42:52;16.90;99.90
9800;DHT22;4939;52.00085300;4.17406100;2022-07-03T04:45:17;16.80;99.90
9800;DHT22;4939;52.00085300;4.17406100;2022-07-03T04:47:43;16.90;99.90
9800;DHT22;4939;52.00085300;4.17406100;2022-07-03T04:50:09;16.90;99.90
9800;DHT22;4939;52.00085300;4.17406100;2022-07-03T04:52:34;16.90;99.90
9800;DHT22;4939;52.00085300;4.17406100;2022-07-03T04:55:00;16.90;99.90
9800;DHT22;4939;52.00085300;4.17406100;2022-07-03T04:57:27;16.90;99.90
9800;DHT22;4939;52.00085300;4.17406100;2022-07-03T04:59:53;16.80;99.90
9800;DHT22;4939;52.00085300;4.17406100;2022-07-03T05:02:19;16.80;99.90
9800;DHT22;4939;52.00085300;4.17406100;2022-07-03T05:04:45;16.90;99.90
9800;DHT22;4939;52.00085300;4.17406100;2022-07-03T05:07:11;16.70;99.90
9800;DHT22;4939;52.00085300;4.17406100;2022-07-03T05:09:36;16.80;99.90
9800;DHT22;4939;52.00085300;4.17406100;2022-07-03T05:12:02;16.80;99.90
9800;DHT22;4939;52.00085300;4.17406100;2022-07-03T05:14:28;16.90;99.90
9800;DHT22;4939;52.00085300;4.17406100;2022-07-03T05:16:54;17.00;99.90
9800;DHT22;4939;52.00085300;4.17406100;2022-07-03T05:19:20;17.10;99.90
9800;DHT22;4939;52.00085300;4.17406100;2022-07-03T05:21:45;17.10;99.90
9800;DHT22;4939;52.00085300;4.17406100;2022-07-03T05:24:11;17.30;99.90
9800;DHT22;4939;52.00085300;4.17406100;2022-07-03T05:26:37;17.70;99.90
9800;DHT22;4939;52.00085300;4.17406100;2022-07-03T05:29:03;17.80;99.90
9800;DHT22;4939;52.00085300;4.17406100;2022-07-03T05:31:28;18.10;99.90
9800;DHT22;4939;52.00085300;4.17406100;2022-07-03T05:33:54;18.00;99.90
9800;DHT22;4939;52.00085300;4.17406100;2022-07-03T05:36:20;18.10;99.90
9800;DHT22;4939;52.00085300;4.17406100;2022-07-03T05:38:45;18.00;99.90
9800;DHT22;4939;52.00085300;4.17406100;2022-07-03T05:41:29;18.00;99.90
9800;DHT22;4939;52.00085300;4.17406100;2022-07-03T05:43:55;18.00;99.90
9800;DHT22;4939;52.00085300;4.17406100;2022-07-03T05:46:21;18.10;99.90
9800;DHT22;4939;52.00085300;4.17406100;2022-07-03T05:48:46;18.30;99.90
9800;DHT22;4939;52.00085300;4.17406100;2022-07-03T05:51:12;18.20;99.90
9800;DHT22;4939;52.00085300;4.17406100;2022-07-03T05:53:38;18.20;99.90
9800;DHT22;4939;52.00085300;4.17406100;2022-07-03T05:56:04;18.30;99.90
9800;DHT22;4939;52.00085300;4.17406100;2022-07-03T05:58:29;18.50;99.90
9800;DHT22;4939;52.00085300;4.17406100;2022-07-03T06:00:55;18.60;99.90
9800;DHT22;4939;52.00085300;4.17406100;2022-07-03T06:03:21;18.80;99.90
9800;DHT22;4939;52.00085300;4.17406100;2022-07-03T06:05:46;18.80;99.90
9800;DHT22;4939;52.00085300;4.17406100;2022-07-03T06:08:12;19.20;99.90
9800;DHT22;4939;52.00085300;4.17406100;2022-07-03T06:10:38;18.70;99.90
9800;DHT22;4939;52.00085300;4.17406100;2022-07-03T06:13:04;19.00;99.90
9800;DHT22;4939;52.00085300;4.17406100;2022-07-03T06:15:29;18.70;99.90
9800;DHT22;4939;52.00085300;4.17406100;2022-07-03T06:17:55;18.70;99.90
9800;DHT22;4939;52.00085300;4.17406100;2022-07-03T06:20:21;18.30;99.90
9800;DHT22;4939;52.00085300;4.17406100;2022-07-03T06:22:46;18.70;99.90
9800;DHT22;4939;52.00085300;4.17406100;2022-07-03T06:25:12;18.80;99.90
9800;DHT22;4939;52.00085300;4.17406100;2022-07-03T06:27:38;18.90;99.90
9800;DHT22;4939;52.00085300;4.17406100;2022-07-03T06:30:04;18.80;99.90
9800;DHT22;4939;52.00085300;4.17406100;2022-07-03T06:32:30;18.90;99.90
9800;DHT22;4939;52.00085300;4.17406100;2022-07-03T06:34:56;19.10;99.90
9800;DHT22;4939;52.00085300;4.17406100;2022-07-03T06:37:22;18.20;99.90
9800;DHT22;4939;52.00085300;4.17406100;2022-07-03T06:39:47;18.90;99.90
9800;DHT22;4939;52.00085300;4.17406100;2022-07-03T06:42:13;18.80;99.90
9800;DHT22;4939;52.00085300;4.17406100;2022-07-03T06:44:39;18.80;99.90
9800;DHT22;4939;52.00085300;4.17406100;2022-07-03T06:47:06;18.70;99.90
9800;DHT22;4939;52.00085300;4.17406100;2022-07-03T06:49:35;19.00;99.90
9800;DHT22;4939;52.00085300;4.17406100;2022-07-03T06:52:01;18.50;99.90
9800;DHT22;4939;52.00085300;4.17406100;2022-07-03T06:54:27;19.10;99.90
9800;DHT22;4939;52.00085300;4.17406100;2022-07-03T06:56:53;19.00;99.90
9800;DHT22;4939;52.00085300;4.17406100;2022-07-03T06:59:19;19.40;99.90
9800;DHT22;4939;52.00085300;4.17406100;2022-07-03T07:01:45;19.40;99.90
9800;DHT22;4939;52.00085300;4.17406100;2022-07-03T07:04:10;18.90;99.90
9800;DHT22;4939;52.00085300;4.17406100;2022-07-03T07:06:36;19.10;99.90
9800;DHT22;4939;52.00085300;4.17406100;2022-07-03T07:09:03;19.80;99.90
9800;DHT22;4939;52.00085300;4.17406100;2022-07-03T07:11:29;19.40;99.90
9800;DHT22;4939;52.00085300;4.17406100;2022-07-03T07:13:55;18.30;99.90
9800;DHT22;4939;52.00085300;4.17406100;2022-07-03T07:16:21;19.10;99.90
9800;DHT22;4939;52.00085300;4.17406100;2022-07-03T07:18:47;19.60;99.90
9800;DHT22;4939;52.00085300;4.17406100;2022-07-03T07:21:13;19.50;99.90
9800;DHT22;4939;52.00085300;4.17406100;2022-07-03T07:23:38;19.90;99.90
9800;DHT22;4939;52.00085300;4.17406100;2022-07-03T07:26:04;19.90;99.90
9800;DHT22;4939;52.00085300;4.17406100;2022-07-03T07:28:30;19.60;99.90
9800;DHT22;4939;52.00085300;4.17406100;2022-07-03T07:30:59;19.30;99.90
9800;DHT22;4939;52.00085300;4.17406100;2022-07-03T07:33:24;19.20;99.90
9800;DHT22;4939;52.00085300;4.17406100;2022-07-03T07:35:50;19.10;99.90
9800;DHT22;4939;52.00085300;4.17406100;2022-07-03T07:38:16;19.00;99.90
9800;DHT22;4939;52.00085300;4.17406100;2022-07-03T07:40:42;19.00;99.90
9800;DHT22;4939;52.00085300;4.17406100;2022-07-03T07:43:08;19.00;99.90
9800;DHT22;4939;52.00085300;4.17406100;2022-07-03T07:45:33;19.00;99.90
9800;DHT22;4939;52.00085300;4.17406100;2022-07-03T07:47:59;19.20;99.90
9800;DHT22;4939;52.00085300;4.17406100;2022-07-03T07:50:25;19.40;99.90
9800;DHT22;4939;52.00085300;4.17406100;2022-07-03T07:52:51;19.40;99.90
9800;DHT22;4939;52.00085300;4.17406100;2022-07-03T07:55:16;19.60;99.90
9800;DHT22;4939;52.00085300;4.17406100;2022-07-03T07:57:51;19.70;99.90
9800;DHT22;4939;52.00085300;4.17406100;2022-07-03T08:00:18;19.60;99.90
9800;DHT22;4939;52.00085300;4.17406100;2022-07-03T08:02:45;19.30;99.90
9800;DHT22;4939;52.00085300;4.17406100;2022-07-03T08:05:30;19.30;99.90
9800;DHT22;4939;52.00085300;4.17406100;2022-07-03T08:08:13;19.10;99.90
9800;DHT22;4939;52.00085300;4.17406100;2022-07-03T08:10:48;19.10;99.90
9800;DHT22;4939;52.00085300;4.17406100;2022-07-03T08:13:15;19.10;99.90
9800;DHT22;4939;52.00085300;4.17406100;2022-07-03T08:15:42;19.10;99.90
9800;DHT22;4939;52.00085300;4.17406100;2022-07-03T08:18:08;19.00;99.90
9800;DHT22;4939;52.00085300;4.17406100;2022-07-03T08:20:35;18.90;99.90
9800;DHT22;4939;52.00085300;4.17406100;2022-07-03T08:23:01;18.90;99.90
9800;DHT22;4939;52.00085300;4.17406100;2022-07-03T08:25:27;18.90;99.90
9800;DHT22;4939;52.00085300;4.17406100;2022-07-03T08:27:53;18.90;99.90
9800;DHT22;4939;52.00085300;4.17406100;2022-07-03T08:30:19;18.90;99.90
9800;DHT22;4939;52.00085300;4.17406100;2022-07-03T08:32:50;19.30;99.90
9800;DHT22;4939;52.00085300;4.17406100;2022-07-03T08:35:16;19.70;99.90
9800;DHT22;4939;52.00085300;4.17406100;2022-07-03T08:37:42;20.00;99.90
9800;DHT22;4939;52.00085300;4.17406100;2022-07-03T08:40:13;20.00;99.90
9800;DHT22;4939;52.00085300;4.17406100;2022-07-03T08:42:46;19.90;99.90
9800;DHT22;4939;52.00085300;4.17406100;2022-07-03T08:45:19;19.60;99.90
9800;DHT22;4939;52.00085300;4.17406100;2022-07-03T08:47:46;19.50;99.90
9800;DHT22;4939;52.00085300;4.17406100;2022-07-03T08:50:13;19.50;99.90
9800;DHT22;4939;52.00085300;4.17406100;2022-07-03T08:52:39;19.50;99.90
9800;DHT22;4939;52.00085300;4.17406100;2022-07-03T08:55:05;19.50;99.90
9800;DHT22;4939;52.00085300;4.17406100;2022-07-03T08:57:32;19.50;99.90
9800;DHT22;4939;52.00085300;4.17406100;2022-07-03T09:00:01;19.60;99.90
9800;DHT22;4939;52.00085300;4.17406100;2022-07-03T09:02:29;19.60;99.90
9800;DHT22;4939;52.00085300;4.17406100;2022-07-03T09:04:56;19.60;99.90
9800;DHT22;4939;52.00085300;4.17406100;2022-07-03T09:07:24;19.50;99.90
9800;DHT22;4939;52.00085300;4.17406100;2022-07-03T09:09:51;19.70;99.90
9800;DHT22;4939;52.00085300;4.17406100;2022-07-03T09:12:17;19.90;99.90
9800;DHT22;4939;52.00085300;4.17406100;2022-07-03T09:14:43;20.00;99.90
9800;DHT22;4939;52.00085300;4.17406100;2022-07-03T09:17:10;20.10;99.90
9800;DHT22;4939;52.00085300;4.17406100;2022-07-03T09:19:40;20.00;99.90
9800;DHT22;4939;52.00085300;4.17406100;2022-07-03T09:22:20;19.90;99.90
9800;DHT22;4939;52.00085300;4.17406100;2022-07-03T09:24:48;20.00;99.90
9800;DHT22;4939;52.00085300;4.17406100;2022-07-03T09:27:17;19.80;99.90
9800;DHT22;4939;52.00085300;4.17406100;2022-07-03T09:30:03;19.90;99.90
9800;DHT22;4939;52.00085300;4.17406100;2022-07-03T09:32:42;19.90;99.90
9800;DHT22;4939;52.00085300;4.17406100;2022-07-03T09:35:29;19.90;99.90
9800;DHT22;4939;52.00085300;4.17406100;2022-07-03T09:37:58;20.30;99.90
9800;DHT22;4939;52.00085300;4.17406100;2022-07-03T09:40:26;20.30;99.90
9800;DHT22;4939;52.00085300;4.17406100;2022-07-03T09:43:06;20.10;99.90
9800;DHT22;4939;52.00085300;4.17406100;2022-07-03T09:46:01;19.90;99.90
9800;DHT22;4939;52.00085300;4.17406100;2022-07-03T09:51:16;19.90;99.90
9800;DHT22;4939;52.00085300;4.17406100;2022-07-03T09:54:03;19.50;99.90
9800;DHT22;4939;52.00085300;4.17406100;2022-07-03T09:56:33;19.30;99.90
9800;DHT22;4939;52.00085300;4.17406100;2022-07-03T10:26:25;21.10;99.90
9800;DHT22;4939;52.00085300;4.17406100;2022-07-03T10:28:51;21.00;99.90
9800;DHT22;4939;52.00085300;4.17406100;2022-07-03T10:31:18;20.70;99.90
9800;DHT22;4939;52.00085300;4.17406100;2022-07-03T10:33:44;20.00;99.90
9800;DHT22;4939;52.00085300;4.17406100;2022-07-03T10:36:11;19.90;99.90
9800;DHT22;4939;52.00085300;4.17406100;2022-07-03T10:38:41;20.10;99.90
9800;DHT22;4939;52.00085300;4.17406100;2022-07-03T10:41:28;20.50;99.90
9800;DHT22;4939;52.00085300;4.17406100;2022-07-03T10:44:13;20.60;99.90
9800;DHT22;4939;52.00085300;4.17406100;2022-07-03T10:46:58;21.00;99.90
9800;DHT22;4939;52.00085300;4.17406100;2022-07-03T10:49:23;21.10;99.90
9800;DHT22;4939;52.00085300;4.17406100;2022-07-03T10:51:58;21.30;99.90
9800;DHT22;4939;52.00085300;4.17406100;2022-07-03T11:02:41;19.90;99.90
9800;DHT22;4939;52.00085300;4.17406100;2022-07-03T11:05:27;19.80;99.90
9800;DHT22;4939;52.00085300;4.17406100;2022-07-03T11:13:10;19.80;99.90
9800;DHT22;4939;52.00085300;4.17406100;2022-07-03T11:25:40;20.20;99.90
9800;DHT22;4939;52.00085300;4.17406100;2022-07-03T11:28:06;20.30;99.90
9800;DHT22;4939;52.00085300;4.17406100;2022-07-03T11:30:33;20.10;99.90
9800;DHT22;4939;52.00085300;4.17406100;2022-07-03T11:32:59;20.10;99.90
9800;DHT22;4939;52.00085300;4.17406100;2022-07-03T11:35:48;20.00;99.90
9800;DHT22;4939;52.00085300;4.17406100;2022-07-03T11:38:25;19.90;99.90
9800;DHT22;4939;52.00085300;4.17406100;2022-07-03T11:40:53;20.10;99.90
9800;DHT22;4939;52.00085300;4.17406100;2022-07-03T11:43:19;20.00;99.90
9800;DHT22;4939;52.00085300;4.17406100;2022-07-03T11:45:46;19.80;99.90
9800;DHT22;4939;52.00085300;4.17406100;2022-07-03T11:48:15;19.80;99.90
9800;DHT22;4939;52.00085300;4.17406100;2022-07-03T11:50:46;19.90;99.90
9800;DHT22;4939;52.00085300;4.17406100;2022-07-03T11:55:49;20.60;99.90
9800;DHT22;4939;52.00085300;4.17406100;2022-07-03T11:58:15;20.90;99.90
9800;DHT22;4939;52.00085300;4.17406100;2022-07-03T12:00:41;20.60;99.90
9800;DHT22;4939;52.00085300;4.17406100;2022-07-03T12:03:06;20.30;99.90
9800;DHT22;4939;52.00085300;4.17406100;2022-07-03T12:05:33;20.80;99.90
9800;DHT22;4939;52.00085300;4.17406100;2022-07-03T12:08:05;20.80;99.90
9800;DHT22;4939;52.00085300;4.17406100;2022-07-03T12:10:40;21.00;99.90
9800;DHT22;4939;52.00085300;4.17406100;2022-07-03T12:13:24;20.90;99.90
9800;DHT22;4939;52.00085300;4.17406100;2022-07-03T12:16:05;20.90;99.90
9800;DHT22;4939;52.00085300;4.17406100;2022-07-03T12:18:47;20.70;99.90
9800;DHT22;4939;52.00085300;4.17406100;2022-07-03T12:21:14;20.60;99.90
9800;DHT22;4939;52.00085300;4.17406100;2022-07-03T12:23:42;20.70;99.90
9800;DHT22;4939;52.00085300;4.17406100;2022-07-03T12:26:08;20.30;99.90
9800;DHT22;4939;52.00085300;4.17406100;2022-07-03T12:28:34;20.40;99.90
9800;DHT22;4939;52.00085300;4.17406100;2022-07-03T12:31:00;20.60;99.90
9800;DHT22;4939;52.00085300;4.17406100;2022-07-03T12:33:26;20.80;99.90
9800;DHT22;4939;52.00085300;4.17406100;2022-07-03T12:36:08;20.20;99.90
9800;DHT22;4939;52.00085300;4.17406100;2022-07-03T12:38:38;20.20;99.90
9800;DHT22;4939;52.00085300;4.17406100;2022-07-03T12:41:09;20.00;99.90
9800;DHT22;4939;52.00085300;4.17406100;2022-07-03T12:43:39;20.40;99.90
9800;DHT22;4939;52.00085300;4.17406100;2022-07-03T12:46:18;20.20;99.90
9800;DHT22;4939;52.00085300;4.17406100;2022-07-03T12:48:57;20.10;99.90
9800;DHT22;4939;52.00085300;4.17406100;2022-07-03T13:06:35;20.30;99.90
